sensor_id;sensor_type;location;lat;lon;timestamp;P1;durP1;ratioP1;P2;durP2;ratioP2
51877;SDS011;37911;51.526;11.536;2022-07-29T00:00:23;4.93;;;1.95;;
51877;SDS011;37911;51.526;11.536;2022-07-29T00:03:31;12.65;;;3.22;;
51877;SDS011;37911;51.526;11.536;2022-07-29T00:06:35;5.28;;;1.10;;
51877;SDS011;37911;51.526;11.536;2022-07-29T00:09:42;6.68;;;1.55;;
51877;SDS011;37911;51.526;11.536;2022-07-29T00:16:53;6.20;;;1.50;;
51877;SDS011;37911;51.526;11.536;2022-07-29T00:20:02;1.50;;;1.20;;
51877;SDS011;37911;51.526;11.536;2022-07-29T00:23:07;5.55;;;1.25;;
51877;SDS011;37911;51.526;11.536;2022-07-29T00:26:11;4.10;;;1.25;;
51877;SDS011;37911;51.526;11.536;2022-07-29T00:29:16;5.15;;;1.48;;
51877;SDS011;37911;51.526;11.536;2022-07-29T00:32:24;4.47;;;1.47;;
51877;SDS011;37911;51.526;11.536;2022-07-29T00:35:32;4.65;;;1.55;;
51877;SDS011;37911;51.526;11.536;2022-07-29T00:38:57;3.60;;;1.17;;
51877;SDS011;37911;51.526;11.536;2022-07-29T00:42:46;6.60;;;1.60;;
51877;SDS011;37911;51.526;11.536;2022-07-29T00:46:00;5.93;;;1.67;;
51877;SDS011;37911;51.526;11.536;2022-07-29T00:49:05;8.27;;;1.80;;
51877;SDS011;37911;51.526;11.536;2022-07-29T00:52:12;4.00;;;1.33;;
51877;SDS011;37911;51.526;11.536;2022-07-29T00:55:16;3.20;;;1.23;;
51877;SDS011;37911;51.526;11.536;2022-07-29T00:58:21;4.88;;;1.70;;
51877;SDS011;37911;51.526;11.536;2022-07-29T01:01:26;4.53;;;1.65;;
51877;SDS011;37911;51.526;11.536;2022-07-29T01:04:31;6.25;;;1.70;;
51877;SDS011;37911;51.526;11.536;2022-07-29T01:07:38;5.75;;;1.20;;
51877;SDS011;37911;51.526;11.536;2022-07-29T01:10:43;9.85;;;1.85;;
51877;SDS011;37911;51.526;11.536;2022-07-29T01:13:48;10.55;;;1.42;;
51877;SDS011;37911;51.526;11.536;2022-07-29T01:16:54;5.97;;;1.40;;
51877;SDS011;37911;51.526;11.536;2022-07-29T01:20:07;5.22;;;1.33;;
51877;SDS011;37911;51.526;11.536;2022-07-29T01:27:02;5.47;;;1.50;;
51877;SDS011;37911;51.526;11.536;2022-07-29T01:30:15;2.45;;;1.25;;
51877;SDS011;37911;51.526;11.536;2022-07-29T01:33:20;5.10;;;1.58;;
51877;SDS011;37911;51.526;11.536;2022-07-29T01:36:40;4.95;;;1.38;;
51877;SDS011;37911;51.526;11.536;2022-07-29T01:39:47;5.25;;;1.48;;
51877;SDS011;37911;51.526;11.536;2022-07-29T01:42:54;4.20;;;1.67;;
51877;SDS011;37911;51.526;11.536;2022-07-29T01:46:05;7.15;;;1.48;;
51877;SDS011;37911;51.526;11.536;2022-07-29T01:49:17;4.72;;;1.60;;
51877;SDS011;37911;51.526;11.536;2022-07-29T01:52:36;6.95;;;1.83;;
51877;SDS011;37911;51.526;11.536;2022-07-29T01:55:44;8.13;;;1.60;;
51877;SDS011;37911;51.526;11.536;2022-07-29T01:58:49;4.03;;;1.40;;
51877;SDS011;37911;51.526;11.536;2022-07-29T02:01:59;7.50;;;1.48;;
51877;SDS011;37911;51.526;11.536;2022-07-29T02:05:05;7.35;;;1.48;;
51877;SDS011;37911;51.526;11.536;2022-07-29T02:08:11;4.47;;;1.65;;
51877;SDS011;37911;51.526;11.536;2022-07-29T02:11:16;4.90;;;1.63;;
51877;SDS011;37911;51.526;11.536;2022-07-29T02:14:21;7.65;;;1.80;;
51877;SDS011;37911;51.526;11.536;2022-07-29T02:17:31;7.22;;;1.95;;
51877;SDS011;37911;51.526;11.536;2022-07-29T02:20:38;8.25;;;1.95;;
51877;SDS011;37911;51.526;11.536;2022-07-29T02:23:44;5.47;;;1.77;;
51877;SDS011;37911;51.526;11.536;2022-07-29T02:26:49;5.15;;;1.48;;
51877;SDS011;37911;51.526;11.536;2022-07-29T02:29:56;5.13;;;1.55;;
51877;SDS011;37911;51.526;11.536;2022-07-29T02:33:06;4.00;;;1.60;;
51877;SDS011;37911;51.526;11.536;2022-07-29T02:36:12;4.57;;;1.10;;
51877;SDS011;37911;51.526;11.536;2022-07-29T02:39:22;8.82;;;1.95;;
51877;SDS011;37911;51.526;11.536;2022-07-29T02:42:29;7.18;;;1.70;;
51877;SDS011;37911;51.526;11.536;2022-07-29T02:45:35;4.10;;;1.60;;
51877;SDS011;37911;51.526;11.536;2022-07-29T02:48:43;6.70;;;1.80;;
51877;SDS011;37911;51.526;11.536;2022-07-29T02:51:57;6.07;;;1.45;;
51877;SDS011;37911;51.526;11.536;2022-07-29T02:58:13;3.47;;;1.45;;
51877;SDS011;37911;51.526;11.536;2022-07-29T03:01:25;2.92;;;1.45;;
51877;SDS011;37911;51.526;11.536;2022-07-29T03:04:35;6.30;;;1.70;;
51877;SDS011;37911;51.526;11.536;2022-07-29T03:07:43;5.10;;;1.50;;
51877;SDS011;37911;51.526;11.536;2022-07-29T03:10:49;6.43;;;1.60;;
51877;SDS011;37911;51.526;11.536;2022-07-29T03:13:55;3.25;;;1.42;;
51877;SDS011;37911;51.526;11.536;2022-07-29T03:17:00;6.40;;;2.00;;
51877;SDS011;37911;51.526;11.536;2022-07-29T03:20:09;5.70;;;1.70;;
51877;SDS011;37911;51.526;11.536;2022-07-29T03:26:23;3.72;;;1.48;;
51877;SDS011;37911;51.526;11.536;2022-07-29T03:29:27;4.80;;;1.80;;
51877;SDS011;37911;51.526;11.536;2022-07-29T03:32:32;6.78;;;1.50;;
51877;SDS011;37911;51.526;11.536;2022-07-29T03:35:39;4.15;;;1.83;;
51877;SDS011;37911;51.526;11.536;2022-07-29T03:38:44;4.20;;;1.73;;
51877;SDS011;37911;51.526;11.536;2022-07-29T03:41:52;4.35;;;1.35;;
51877;SDS011;37911;51.526;11.536;2022-07-29T03:44:59;3.30;;;1.85;;
51877;SDS011;37911;51.526;11.536;2022-07-29T03:48:08;6.60;;;1.27;;
51877;SDS011;37911;51.526;11.536;2022-07-29T03:51:18;3.00;;;1.60;;
51877;SDS011;37911;51.526;11.536;2022-07-29T03:54:35;7.68;;;1.60;;
51877;SDS011;37911;51.526;11.536;2022-07-29T03:57:40;7.20;;;1.40;;
51877;SDS011;37911;51.526;11.536;2022-07-29T04:00:48;5.75;;;1.67;;
51877;SDS011;37911;51.526;11.536;2022-07-29T04:03:52;8.35;;;1.77;;
51877;SDS011;37911;51.526;11.536;2022-07-29T04:06:59;10.90;;;1.73;;
51877;SDS011;37911;51.526;11.536;2022-07-29T04:10:04;6.00;;;2.10;;
51877;SDS011;37911;51.526;11.536;2022-07-29T04:13:09;7.05;;;1.65;;
51877;SDS011;37911;51.526;11.536;2022-07-29T04:16:13;7.75;;;1.77;;
51877;SDS011;37911;51.526;11.536;2022-07-29T04:19:17;4.03;;;1.55;;
51877;SDS011;37911;51.526;11.536;2022-07-29T04:22:27;6.60;;;1.85;;
51877;SDS011;37911;51.526;11.536;2022-07-29T04:25:36;4.78;;;1.92;;
51877;SDS011;37911;51.526;11.536;2022-07-29T04:28:41;6.50;;;2.03;;
51877;SDS011;37911;51.526;11.536;2022-07-29T04:31:46;6.00;;;1.50;;
51877;SDS011;37911;51.526;11.536;2022-07-29T04:34:51;10.68;;;1.88;;
51877;SDS011;37911;51.526;11.536;2022-07-29T04:37:59;4.97;;;1.45;;
51877;SDS011;37911;51.526;11.536;2022-07-29T04:41:03;5.82;;;1.70;;
51877;SDS011;37911;51.526;11.536;2022-07-29T04:44:08;4.40;;;1.70;;
51877;SDS011;37911;51.526;11.536;2022-07-29T04:47:16;10.20;;;1.65;;
51877;SDS011;37911;51.526;11.536;2022-07-29T04:50:20;5.13;;;2.15;;
51877;SDS011;37911;51.526;11.536;2022-07-29T04:53:28;4.70;;;1.92;;
51877;SDS011;37911;51.526;11.536;2022-07-29T04:56:35;6.28;;;1.70;;
51877;SDS011;37911;51.526;11.536;2022-07-29T04:59:55;8.15;;;2.05;;
51877;SDS011;37911;51.526;11.536;2022-07-29T05:03:03;5.55;;;1.60;;
51877;SDS011;37911;51.526;11.536;2022-07-29T05:06:23;8.05;;;1.90;;
51877;SDS011;37911;51.526;11.536;2022-07-29T05:09:42;6.35;;;1.58;;
51877;SDS011;37911;51.526;11.536;2022-07-29T05:12:57;6.13;;;1.70;;
51877;SDS011;37911;51.526;11.536;2022-07-29T05:16:02;7.68;;;1.75;;
51877;SDS011;37911;51.526;11.536;2022-07-29T05:19:07;8.07;;;1.80;;
51877;SDS011;37911;51.526;11.536;2022-07-29T05:22:24;7.75;;;1.70;;
51877;SDS011;37911;51.526;11.536;2022-07-29T05:25:32;7.07;;;1.95;;
51877;SDS011;37911;51.526;11.536;2022-07-29T05:28:40;6.47;;;1.98;;
51877;SDS011;37911;51.526;11.536;2022-07-29T05:31:44;9.45;;;2.30;;
51877;SDS011;37911;51.526;11.536;2022-07-29T05:34:49;8.88;;;1.80;;
51877;SDS011;37911;51.526;11.536;2022-07-29T05:38:06;7.18;;;1.80;;
51877;SDS011;37911;51.526;11.536;2022-07-29T05:41:20;8.80;;;2.65;;
51877;SDS011;37911;51.526;11.536;2022-07-29T05:44:26;10.85;;;2.55;;
51877;SDS011;37911;51.526;11.536;2022-07-29T05:47:31;6.97;;;1.90;;
51877;SDS011;37911;51.526;11.536;2022-07-29T05:50:40;9.68;;;1.70;;
51877;SDS011;37911;51.526;11.536;2022-07-29T05:54:00;6.70;;;2.05;;
51877;SDS011;37911;51.526;11.536;2022-07-29T05:57:08;11.93;;;1.70;;
51877;SDS011;37911;51.526;11.536;2022-07-29T06:00:25;12.95;;;1.98;;
51877;SDS011;37911;51.526;11.536;2022-07-29T06:03:31;15.82;;;2.78;;
51877;SDS011;37911;51.526;11.536;2022-07-29T06:06:38;10.80;;;2.40;;
51877;SDS011;37911;51.526;11.536;2022-07-29T06:09:47;6.30;;;2.33;;
51877;SDS011;37911;51.526;11.536;2022-07-29T06:12:55;7.10;;;2.38;;
51877;SDS011;37911;51.526;11.536;2022-07-29T06:15:59;11.90;;;2.10;;
51877;SDS011;37911;51.526;11.536;2022-07-29T06:19:17;8.52;;;2.00;;
51877;SDS011;37911;51.526;11.536;2022-07-29T06:22:30;5.82;;;1.77;;
51877;SDS011;37911;51.526;11.536;2022-07-29T06:38:42;8.57;;;1.77;;
51877;SDS011;37911;51.526;11.536;2022-07-29T06:49:58;6.60;;;1.60;;
51877;SDS011;37911;51.526;11.536;2022-07-29T06:53:03;4.53;;;1.70;;
51877;SDS011;37911;51.526;11.536;2022-07-29T06:56:24;13.57;;;1.88;;
51877;SDS011;37911;51.526;11.536;2022-07-29T06:59:34;6.50;;;2.13;;
51877;SDS011;37911;51.526;11.536;2022-07-29T07:02:50;6.72;;;2.58;;
51877;SDS011;37911;51.526;11.536;2022-07-29T07:06:53;12.80;;;1.97;;
51877;SDS011;37911;51.526;11.536;2022-07-29T07:14:20;7.45;;;1.75;;
51877;SDS011;37911;51.526;11.536;2022-07-29T07:17:27;3.55;;;1.70;;
51877;SDS011;37911;51.526;11.536;2022-07-29T07:20:32;8.55;;;2.65;;
51877;SDS011;37911;51.526;11.536;2022-07-29T07:23:40;9.75;;;2.10;;
51877;SDS011;37911;51.526;11.536;2022-07-29T07:26:49;5.63;;;1.85;;
51877;SDS011;37911;51.526;11.536;2022-07-29T07:29:56;5.57;;;2.03;;
51877;SDS011;37911;51.526;11.536;2022-07-29T07:33:01;8.88;;;1.90;;
51877;SDS011;37911;51.526;11.536;2022-07-29T07:36:06;4.00;;;1.40;;
51877;SDS011;37911;51.526;11.536;2022-07-29T07:39:14;8.77;;;1.50;;
51877;SDS011;37911;51.526;11.536;2022-07-29T07:42:26;8.80;;;2.67;;
51877;SDS011;37911;51.526;11.536;2022-07-29T07:45:32;5.97;;;1.90;;
51877;SDS011;37911;51.526;11.536;2022-07-29T07:48:39;6.55;;;1.88;;
51877;SDS011;37911;51.526;11.536;2022-07-29T07:51:44;4.65;;;1.70;;
51877;SDS011;37911;51.526;11.536;2022-07-29T07:54:52;12.95;;;1.98;;
51877;SDS011;37911;51.526;11.536;2022-07-29T07:58:00;6.28;;;2.00;;
51877;SDS011;37911;51.526;11.536;2022-07-29T08:01:05;9.00;;;2.20;;
51877;SDS011;37911;51.526;11.536;2022-07-29T08:04:15;8.18;;;2.28;;
51877;SDS011;37911;51.526;11.536;2022-07-29T08:07:26;11.52;;;2.17;;
51877;SDS011;37911;51.526;11.536;2022-07-29T08:10:37;9.98;;;2.08;;
51877;SDS011;37911;51.526;11.536;2022-07-29T08:13:56;16.25;;;2.35;;
51877;SDS011;37911;51.526;11.536;2022-07-29T08:17:02;7.57;;;2.05;;
51877;SDS011;37911;51.526;11.536;2022-07-29T08:20:08;6.60;;;1.98;;
51877;SDS011;37911;51.526;11.536;2022-07-29T08:23:13;6.95;;;2.60;;
51877;SDS011;37911;51.526;11.536;2022-07-29T08:26:25;11.65;;;2.10;;
51877;SDS011;37911;51.526;11.536;2022-07-29T08:29:29;11.23;;;1.90;;
51877;SDS011;37911;51.526;11.536;2022-07-29T08:32:34;7.78;;;2.53;;
51877;SDS011;37911;51.526;11.536;2022-07-29T08:35:38;10.70;;;3.40;;
51877;SDS011;37911;51.526;11.536;2022-07-29T08:38:48;9.80;;;2.80;;
51877;SDS011;37911;51.526;11.536;2022-07-29T08:41:55;10.10;;;2.50;;
51877;SDS011;37911;51.526;11.536;2022-07-29T08:44:59;8.82;;;3.00;;
51877;SDS011;37911;51.526;11.536;2022-07-29T08:48:04;10.40;;;3.22;;
51877;SDS011;37911;51.526;11.536;2022-07-29T08:51:08;8.95;;;2.92;;
51877;SDS011;37911;51.526;11.536;2022-07-29T08:54:25;15.13;;;2.80;;
51877;SDS011;37911;51.526;11.536;2022-07-29T08:57:35;11.13;;;2.80;;
51877;SDS011;37911;51.526;11.536;2022-07-29T09:00:45;10.18;;;2.80;;
51877;SDS011;37911;51.526;11.536;2022-07-29T09:03:54;11.55;;;2.80;;
51877;SDS011;37911;51.526;11.536;2022-07-29T09:07:00;7.40;;;2.85;;
51877;SDS011;37911;51.526;11.536;2022-07-29T09:10:09;12.25;;;3.00;;
51877;SDS011;37911;51.526;11.536;2022-07-29T09:13:16;9.20;;;2.75;;
51877;SDS011;37911;51.526;11.536;2022-07-29T09:16:39;7.60;;;2.60;;
51877;SDS011;37911;51.526;11.536;2022-07-29T09:19:47;14.05;;;2.85;;
51877;SDS011;37911;51.526;11.536;2022-07-29T09:22:53;9.50;;;2.85;;
51877;SDS011;37911;51.526;11.536;2022-07-29T09:25:58;6.63;;;2.70;;
51877;SDS011;37911;51.526;11.536;2022-07-29T09:29:12;9.57;;;2.78;;
51877;SDS011;37911;51.526;11.536;2022-07-29T09:32:24;12.15;;;2.72;;
51877;SDS011;37911;51.526;11.536;2022-07-29T09:35:30;7.90;;;2.40;;
51877;SDS011;37911;51.526;11.536;2022-07-29T09:38:59;10.35;;;3.00;;
51877;SDS011;37911;51.526;11.536;2022-07-29T09:42:05;11.73;;;3.20;;
51877;SDS011;37911;51.526;11.536;2022-07-29T09:45:26;11.40;;;2.72;;
51877;SDS011;37911;51.526;11.536;2022-07-29T09:48:38;9.15;;;2.85;;
51877;SDS011;37911;51.526;11.536;2022-07-29T09:51:41;7.25;;;2.95;;
51877;SDS011;37911;51.526;11.536;2022-07-29T09:54:46;13.30;;;3.42;;
51877;SDS011;37911;51.526;11.536;2022-07-29T09:57:50;15.00;;;2.80;;
51877;SDS011;37911;51.526;11.536;2022-07-29T10:00:57;10.77;;;3.30;;
51877;SDS011;37911;51.526;11.536;2022-07-29T10:04:00;11.25;;;3.38;;
51877;SDS011;37911;51.526;11.536;2022-07-29T10:07:05;7.88;;;3.28;;
51877;SDS011;37911;51.526;11.536;2022-07-29T10:10:18;7.03;;;2.72;;
51877;SDS011;37911;51.526;11.536;2022-07-29T10:13:23;10.18;;;3.28;;
51877;SDS011;37911;51.526;11.536;2022-07-29T10:16:32;11.70;;;3.50;;
51877;SDS011;37911;51.526;11.536;2022-07-29T10:19:36;6.75;;;3.10;;
51877;SDS011;37911;51.526;11.536;2022-07-29T10:22:42;10.63;;;4.03;;
51877;SDS011;37911;51.526;11.536;2022-07-29T10:25:47;13.65;;;3.72;;
51877;SDS011;37911;51.526;11.536;2022-07-29T10:28:51;12.52;;;4.13;;
51877;SDS011;37911;51.526;11.536;2022-07-29T10:32:06;10.27;;;3.80;;
51877;SDS011;37911;51.526;11.536;2022-07-29T10:35:21;9.63;;;4.40;;
51877;SDS011;37911;51.526;11.536;2022-07-29T10:38:43;16.58;;;4.43;;
51877;SDS011;37911;51.526;11.536;2022-07-29T10:42:06;13.10;;;4.28;;
51877;SDS011;37911;51.526;11.536;2022-07-29T10:45:18;19.58;;;4.82;;
51877;SDS011;37911;51.526;11.536;2022-07-29T10:48:25;7.78;;;3.78;;
51877;SDS011;37911;51.526;11.536;2022-07-29T10:54:54;16.85;;;3.03;;
51877;SDS011;37911;51.526;11.536;2022-07-29T10:58:13;15.30;;;3.38;;
51877;SDS011;37911;51.526;11.536;2022-07-29T11:01:28;7.72;;;2.80;;
51877;SDS011;37911;51.526;11.536;2022-07-29T11:08:22;11.68;;;3.28;;
51877;SDS011;37911;51.526;11.536;2022-07-29T11:11:31;8.68;;;2.60;;
51877;SDS011;37911;51.526;11.536;2022-07-29T11:15:13;12.88;;;3.10;;
51877;SDS011;37911;51.526;11.536;2022-07-29T11:18:21;8.55;;;2.72;;
51877;SDS011;37911;51.526;11.536;2022-07-29T11:21:38;14.25;;;2.80;;
51877;SDS011;37911;51.526;11.536;2022-07-29T11:28:18;6.78;;;2.50;;
51877;SDS011;37911;51.526;11.536;2022-07-29T11:31:32;9.02;;;2.95;;
51877;SDS011;37911;51.526;11.536;2022-07-29T11:38:34;9.70;;;2.30;;
51877;SDS011;37911;51.526;11.536;2022-07-29T11:41:39;9.30;;;2.65;;
51877;SDS011;37911;51.526;11.536;2022-07-29T11:44:53;10.68;;;3.10;;
51877;SDS011;37911;51.526;11.536;2022-07-29T11:47:58;12.23;;;3.08;;
51877;SDS011;37911;51.526;11.536;2022-07-29T11:51:04;6.80;;;2.78;;
51877;SDS011;37911;51.526;11.536;2022-07-29T11:54:21;13.38;;;2.65;;
51877;SDS011;37911;51.526;11.536;2022-07-29T11:57:33;6.43;;;2.28;;
51877;SDS011;37911;51.526;11.536;2022-07-29T12:00:39;5.38;;;2.50;;
51877;SDS011;37911;51.526;11.536;2022-07-29T12:03:46;6.65;;;2.55;;
51877;SDS011;37911;51.526;11.536;2022-07-29T12:06:51;6.38;;;2.50;;
51877;SDS011;37911;51.526;11.536;2022-07-29T12:10:00;6.82;;;2.72;;
51877;SDS011;37911;51.526;11.536;2022-07-29T12:13:05;7.55;;;2.40;;
51877;SDS011;37911;51.526;11.536;2022-07-29T12:16:11;5.63;;;2.78;;
51877;SDS011;37911;51.526;11.536;2022-07-29T12:19:20;7.25;;;2.70;;
51877;SDS011;37911;51.526;11.536;2022-07-29T12:22:34;5.35;;;2.08;;
51877;SDS011;37911;51.526;11.536;2022-07-29T12:25:44;7.53;;;2.42;;
51877;SDS011;37911;51.526;11.536;2022-07-29T12:28:50;7.03;;;2.80;;
51877;SDS011;37911;51.526;11.536;2022-07-29T12:31:55;4.82;;;2.25;;
51877;SDS011;37911;51.526;11.536;2022-07-29T12:34:59;5.97;;;2.28;;
51877;SDS011;37911;51.526;11.536;2022-07-29T12:38:06;11.90;;;2.83;;
51877;SDS011;37911;51.526;11.536;2022-07-29T12:41:15;6.90;;;2.03;;
51877;SDS011;37911;51.526;11.536;2022-07-29T12:44:19;6.78;;;2.17;;
51877;SDS011;37911;51.526;11.536;2022-07-29T12:47:24;6.00;;;2.13;;
51877;SDS011;37911;51.526;11.536;2022-07-29T12:50:28;11.88;;;2.40;;
51877;SDS011;37911;51.526;11.536;2022-07-29T12:53:34;6.72;;;2.10;;
51877;SDS011;37911;51.526;11.536;2022-07-29T12:56:42;12.45;;;2.78;;
51877;SDS011;37911;51.526;11.536;2022-07-29T12:59:58;9.85;;;2.55;;
51877;SDS011;37911;51.526;11.536;2022-07-29T13:03:03;5.32;;;2.28;;
51877;SDS011;37911;51.526;11.536;2022-07-29T13:09:37;4.20;;;2.13;;
51877;SDS011;37911;51.526;11.536;2022-07-29T13:16:09;7.70;;;2.15;;
51877;SDS011;37911;51.526;11.536;2022-07-29T13:19:13;6.93;;;2.38;;
51877;SDS011;37911;51.526;11.536;2022-07-29T13:22:17;4.85;;;2.10;;
51877;SDS011;37911;51.526;11.536;2022-07-29T13:25:24;16.27;;;2.30;;
51877;SDS011;37911;51.526;11.536;2022-07-29T13:28:58;9.52;;;2.35;;
51877;SDS011;37911;51.526;11.536;2022-07-29T13:32:02;13.18;;;2.40;;
51877;SDS011;37911;51.526;11.536;2022-07-29T13:35:08;4.78;;;2.35;;
51877;SDS011;37911;51.526;11.536;2022-07-29T13:38:15;4.15;;;2.22;;
51877;SDS011;37911;51.526;11.536;2022-07-29T13:41:19;5.03;;;1.90;;
51877;SDS011;37911;51.526;11.536;2022-07-29T13:44:26;5.75;;;2.30;;
51877;SDS011;37911;51.526;11.536;2022-07-29T13:47:32;8.63;;;2.70;;
51877;SDS011;37911;51.526;11.536;2022-07-29T13:50:36;5.95;;;2.20;;
51877;SDS011;37911;51.526;11.536;2022-07-29T13:53:41;8.10;;;2.83;;
51877;SDS011;37911;51.526;11.536;2022-07-29T13:56:45;5.75;;;2.00;;
51877;SDS011;37911;51.526;11.536;2022-07-29T13:59:55;8.98;;;2.35;;
51877;SDS011;37911;51.526;11.536;2022-07-29T14:02:59;9.45;;;2.22;;
51877;SDS011;37911;51.526;11.536;2022-07-29T14:06:04;8.95;;;2.45;;
51877;SDS011;37911;51.526;11.536;2022-07-29T14:09:08;4.03;;;1.80;;
51877;SDS011;37911;51.526;11.536;2022-07-29T14:12:14;11.88;;;2.50;;
51877;SDS011;37911;51.526;11.536;2022-07-29T14:15:22;6.05;;;2.13;;
51877;SDS011;37911;51.526;11.536;2022-07-29T14:18:27;4.82;;;1.88;;
51877;SDS011;37911;51.526;11.536;2022-07-29T14:21:32;9.10;;;2.22;;
51877;SDS011;37911;51.526;11.536;2022-07-29T14:24:38;4.57;;;2.10;;
51877;SDS011;37911;51.526;11.536;2022-07-29T14:27:44;10.75;;;2.30;;
51877;SDS011;37911;51.526;11.536;2022-07-29T14:34:14;4.78;;;2.00;;
51877;SDS011;37911;51.526;11.536;2022-07-29T14:37:28;7.63;;;1.88;;
51877;SDS011;37911;51.526;11.536;2022-07-29T14:40:38;6.07;;;2.13;;
51877;SDS011;37911;51.526;11.536;2022-07-29T14:43:44;7.20;;;2.03;;
51877;SDS011;37911;51.526;11.536;2022-07-29T14:46:57;8.98;;;2.22;;
51877;SDS011;37911;51.526;11.536;2022-07-29T14:50:14;7.88;;;1.92;;
51877;SDS011;37911;51.526;11.536;2022-07-29T14:54:32;8.65;;;2.40;;
51877;SDS011;37911;51.526;11.536;2022-07-29T14:57:50;9.75;;;3.08;;
51877;SDS011;37911;51.526;11.536;2022-07-29T15:01:39;4.50;;;1.75;;
51877;SDS011;37911;51.526;11.536;2022-07-29T15:05:20;4.40;;;1.95;;
51877;SDS011;37911;51.526;11.536;2022-07-29T15:13:16;5.53;;;1.48;;
51877;SDS011;37911;51.526;11.536;2022-07-29T15:16:24;6.67;;;2.03;;
51877;SDS011;37911;51.526;11.536;2022-07-29T15:20:43;5.07;;;2.13;;
51877;SDS011;37911;51.526;11.536;2022-07-29T15:24:11;11.88;;;2.28;;
51877;SDS011;37911;51.526;11.536;2022-07-29T15:27:57;6.93;;;2.43;;
51877;SDS011;37911;51.526;11.536;2022-07-29T15:34:59;6.30;;;2.20;;
51877;SDS011;37911;51.526;11.536;2022-07-29T15:38:31;12.93;;;2.58;;
51877;SDS011;37911;51.526;11.536;2022-07-29T15:41:57;8.60;;;2.85;;
51877;SDS011;37911;51.526;11.536;2022-07-29T15:45:36;5.68;;;2.03;;
51877;SDS011;37911;51.526;11.536;2022-07-29T15:49:07;6.57;;;2.28;;
51877;SDS011;37911;51.526;11.536;2022-07-29T15:52:28;7.85;;;2.60;;
51877;SDS011;37911;51.526;11.536;2022-07-29T16:00:37;5.75;;;2.13;;
51877;SDS011;37911;51.526;11.536;2022-07-29T16:04:11;6.32;;;2.42;;
51877;SDS011;37911;51.526;11.536;2022-07-29T16:08:16;5.85;;;2.10;;
51877;SDS011;37911;51.526;11.536;2022-07-29T16:12:00;5.63;;;2.20;;
51877;SDS011;37911;51.526;11.536;2022-07-29T16:15:14;3.42;;;2.17;;
51877;SDS011;37911;51.526;11.536;2022-07-29T16:18:48;7.70;;;2.40;;
51877;SDS011;37911;51.526;11.536;2022-07-29T16:22:11;5.43;;;2.10;;
51877;SDS011;37911;51.526;11.536;2022-07-29T16:25:33;6.85;;;2.33;;
51877;SDS011;37911;51.526;11.536;2022-07-29T16:29:00;8.15;;;2.20;;
51877;SDS011;37911;51.526;11.536;2022-07-29T16:32:32;13.07;;;2.23;;
51877;SDS011;37911;51.526;11.536;2022-07-29T16:36:28;3.63;;;1.67;;
51877;SDS011;37911;51.526;11.536;2022-07-29T16:52:31;5.47;;;2.25;;
51877;SDS011;37911;51.526;11.536;2022-07-29T16:56:09;4.85;;;1.60;;
51877;SDS011;37911;51.526;11.536;2022-07-29T16:59:40;4.80;;;1.88;;
51877;SDS011;37911;51.526;11.536;2022-07-29T17:02:44;3.45;;;1.92;;
51877;SDS011;37911;51.526;11.536;2022-07-29T17:05:48;3.97;;;1.92;;
51877;SDS011;37911;51.526;11.536;2022-07-29T17:08:54;4.75;;;1.88;;
51877;SDS011;37911;51.526;11.536;2022-07-29T17:11:57;8.18;;;1.95;;
51877;SDS011;37911;51.526;11.536;2022-07-29T17:15:00;7.90;;;2.10;;
51877;SDS011;37911;51.526;11.536;2022-07-29T17:18:04;8.85;;;2.10;;
51877;SDS011;37911;51.526;11.536;2022-07-29T17:21:07;6.32;;;2.05;;
51877;SDS011;37911;51.526;11.536;2022-07-29T17:24:13;6.88;;;1.80;;
51877;SDS011;37911;51.526;11.536;2022-07-29T17:27:17;6.07;;;2.20;;
51877;SDS011;37911;51.526;11.536;2022-07-29T17:30:20;8.73;;;1.90;;
51877;SDS011;37911;51.526;11.536;2022-07-29T17:33:24;3.60;;;1.90;;
51877;SDS011;37911;51.526;11.536;2022-07-29T17:36:27;4.95;;;1.73;;
51877;SDS011;37911;51.526;11.536;2022-07-29T17:39:37;3.45;;;1.98;;
51877;SDS011;37911;51.526;11.536;2022-07-29T17:42:44;6.68;;;2.20;;
51877;SDS011;37911;51.526;11.536;2022-07-29T17:45:47;5.63;;;1.90;;
51877;SDS011;37911;51.526;11.536;2022-07-29T17:48:51;6.03;;;1.73;;
51877;SDS011;37911;51.526;11.536;2022-07-29T17:51:54;4.88;;;1.90;;
51877;SDS011;37911;51.526;11.536;2022-07-29T17:55:00;6.45;;;1.92;;
51877;SDS011;37911;51.526;11.536;2022-07-29T17:58:04;4.07;;;2.10;;
51877;SDS011;37911;51.526;11.536;2022-07-29T18:01:08;4.13;;;1.88;;
51877;SDS011;37911;51.526;11.536;2022-07-29T18:04:11;7.05;;;1.92;;
51877;SDS011;37911;51.526;11.536;2022-07-29T18:07:25;4.20;;;1.90;;
51877;SDS011;37911;51.526;11.536;2022-07-29T18:10:37;10.25;;;2.08;;
51877;SDS011;37911;51.526;11.536;2022-07-29T18:13:41;4.35;;;1.95;;
51877;SDS011;37911;51.526;11.536;2022-07-29T18:16:44;5.00;;;2.05;;
51877;SDS011;37911;51.526;11.536;2022-07-29T18:19:47;7.38;;;2.42;;
51877;SDS011;37911;51.526;11.536;2022-07-29T18:22:52;6.70;;;2.30;;
51877;SDS011;37911;51.526;11.536;2022-07-29T18:25:58;10.38;;;2.53;;
51877;SDS011;37911;51.526;11.536;2022-07-29T18:29:01;12.05;;;2.80;;
51877;SDS011;37911;51.526;11.536;2022-07-29T18:32:05;17.55;;;7.53;;
51877;SDS011;37911;51.526;11.536;2022-07-29T18:35:11;15.93;;;5.47;;
51877;SDS011;37911;51.526;11.536;2022-07-29T18:38:15;11.70;;;4.30;;
51877;SDS011;37911;51.526;11.536;2022-07-29T18:41:23;8.55;;;3.00;;
51877;SDS011;37911;51.526;11.536;2022-07-29T18:44:26;6.47;;;2.83;;
51877;SDS011;37911;51.526;11.536;2022-07-29T18:47:30;15.20;;;3.30;;
51877;SDS011;37911;51.526;11.536;2022-07-29T18:50:34;9.82;;;4.40;;
51877;SDS011;37911;51.526;11.536;2022-07-29T18:53:37;10.10;;;3.50;;
51877;SDS011;37911;51.526;11.536;2022-07-29T18:56:43;17.52;;;4.05;;
51877;SDS011;37911;51.526;11.536;2022-07-29T18:59:47;9.50;;;4.82;;
51877;SDS011;37911;51.526;11.536;2022-07-29T19:02:51;10.40;;;4.80;;
51877;SDS011;37911;51.526;11.536;2022-07-29T19:05:55;9.20;;;3.70;;
51877;SDS011;37911;51.526;11.536;2022-07-29T19:08:59;12.95;;;3.70;;
51877;SDS011;37911;51.526;11.536;2022-07-29T19:12:05;8.73;;;2.75;;
51877;SDS011;37911;51.526;11.536;2022-07-29T19:15:09;5.30;;;3.00;;
51877;SDS011;37911;51.526;11.536;2022-07-29T19:18:13;12.27;;;3.10;;
51877;SDS011;37911;51.526;11.536;2022-07-29T19:21:16;26.08;;;3.95;;
51877;SDS011;37911;51.526;11.536;2022-07-29T19:24:20;15.27;;;3.22;;
51877;SDS011;37911;51.526;11.536;2022-07-29T19:27:26;17.83;;;3.05;;
51877;SDS011;37911;51.526;11.536;2022-07-29T19:30:29;13.63;;;3.05;;
51877;SDS011;37911;51.526;11.536;2022-07-29T19:33:33;12.30;;;2.70;;
51877;SDS011;37911;51.526;11.536;2022-07-29T19:36:36;7.10;;;2.40;;
51877;SDS011;37911;51.526;11.536;2022-07-29T19:39:40;9.57;;;3.20;;
51877;SDS011;37911;51.526;11.536;2022-07-29T19:42:46;16.58;;;3.03;;
51877;SDS011;37911;51.526;11.536;2022-07-29T19:45:51;10.95;;;3.00;;
51877;SDS011;37911;51.526;11.536;2022-07-29T19:48:55;25.33;;;3.45;;
51877;SDS011;37911;51.526;11.536;2022-07-29T19:51:58;22.20;;;3.28;;
51877;SDS011;37911;51.526;11.536;2022-07-29T19:55:02;18.50;;;2.85;;
51877;SDS011;37911;51.526;11.536;2022-07-29T19:58:08;11.60;;;3.13;;
51877;SDS011;37911;51.526;11.536;2022-07-29T20:01:11;9.15;;;3.10;;
51877;SDS011;37911;51.526;11.536;2022-07-29T20:04:22;8.85;;;3.22;;
51877;SDS011;37911;51.526;11.536;2022-07-29T20:07:32;15.85;;;3.13;;
51877;SDS011;37911;51.526;11.536;2022-07-29T20:10:38;7.00;;;2.53;;
51877;SDS011;37911;51.526;11.536;2022-07-29T20:13:44;15.30;;;2.78;;